sensor_id;sensor_type;location;lat;lon;timestamp;pressure;altitude;pressure_sealevel;temperature;humidity
4858;BME280;58975;51.978;8.472;2023-01-28T00:01:21;101539.06;;;-0.05;100.00
4858;BME280;58975;51.978;8.472;2023-01-28T00:06:18;101533.84;;;-0.05;100.00
4858;BME280;58975;51.978;8.472;2023-01-28T00:11:14;101537.41;;;-0.09;100.00
4858;BME280;58975;51.978;8.472;2023-01-28T00:16:11;101539.09;;;-0.07;100.00
4858;BME280;58975;51.978;8.472;2023-01-28T00:21:12;101539.00;;;-0.02;100.00
4858;BME280;58975;51.978;8.472;2023-01-28T00:26:12;101533.78;;;-0.02;100.00
4858;BME280;58975;51.978;8.472;2023-01-28T00:31:11;101539.06;;;-0.05;100.00
4858;BME280;58975;51.978;8.472;2023-01-28T00:36:10;101531.13;;;-0.01;100.00
4858;BME280;58975;51.978;8.472;2023-01-28T00:41:15;101542.72;;;-0.12;100.00
4858;BME280;58975;51.978;8.472;2023-01-28T00:46:13;101548.81;;;-0.13;100.00
4858;BME280;58975;51.978;8.472;2023-01-28T00:51:12;101549.63;;;-0.08;100.00
4858;BME280;58975;51.978;8.472;2023-01-28T00:56:10;101545.19;;;-0.06;100.00
4858;BME280;58975;51.978;8.472;2023-01-28T01:01:14;101546.94;;;-0.05;100.00
4858;BME280;58975;51.978;8.472;2023-01-28T01:06:13;101539.88;;;-0.02;100.00
4858;BME280;58975;51.978;8.472;2023-01-28T01:11:10;101538.03;;;0.04;100.00
4858;BME280;58975;51.978;8.472;2023-01-28T01:16:09;101532.81;;;0.02;100.00
4858;BME280;58975;51.978;8.472;2023-01-28T01:21:12;101528.47;;;0.01;100.00
4858;BME280;58975;51.978;8.472;2023-01-28T01:26:09;101534.63;;;-0.02;100.00
4858;BME280;58975;51.978;8.472;2023-01-28T01:31:11;101533.91;;;-0.08;100.00
4858;BME280;58975;51.978;8.472;2023-01-28T01:36:11;101540.81;;;-0.04;100.00
4858;BME280;58975;51.978;8.472;2023-01-28T01:41:18;101537.34;;;-0.08;100.00
4858;BME280;58975;51.978;8.472;2023-01-28T01:46:21;101538.16;;;-0.03;100.00
4858;BME280;58975;51.978;8.472;2023-01-28T01:51:25;101537.34;;;-0.06;100.00
4858;BME280;58975;51.978;8.472;2023-01-28T01:56:28;101543.53;;;-0.12;100.00
4858;BME280;58975;51.978;8.472;2023-01-28T02:01:28;101547.00;;;-0.10;100.00
4858;BME280;58975;51.978;8.472;2023-01-28T02:06:26;101545.31;;;-0.12;100.00
4858;BME280;58975;51.978;8.472;2023-01-28T02:11:29;101553.06;;;-0.06;100.00
4858;BME280;58975;51.978;8.472;2023-01-28T02:16:28;101556.63;;;-0.10;100.00
4858;BME280;58975;51.978;8.472;2023-01-28T02:21:37;101565.44;;;-0.16;100.00
4858;BME280;58975;51.978;8.472;2023-01-28T02:31:43;101566.41;;;-0.20;100.00
4858;BME280;58975;51.978;8.472;2023-01-28T02:36:48;101557.59;;;-0.16;100.00
4858;BME280;58975;51.978;8.472;2023-01-28T02:41:52;101561.97;;;-0.16;100.00
4858;BME280;58975;51.978;8.472;2023-01-28T02:46:52;101562.06;;;-0.22;100.00
4858;BME280;58975;51.978;8.472;2023-01-28T03:07:26;101549.78;;;-0.19;100.00
4858;BME280;58975;51.978;8.472;2023-01-28T03:12:26;101552.59;;;-0.28;100.00
4858;BME280;58975;51.978;8.472;2023-01-28T03:17:50;101549.84;;;-0.20;100.00
4858;BME280;58975;51.978;8.472;2023-01-28T03:23:10;101544.75;;;-0.29;100.00
4858;BME280;58975;51.978;8.472;2023-01-28T03:28:28;101549.03;;;-0.24;100.00
4858;BME280;58975;51.978;8.472;2023-01-28T03:33:44;101538.63;;;-0.28;100.00
4858;BME280;58975;51.978;8.472;2023-01-28T03:39:00;101548.09;;;-0.21;100.00
4858;BME280;58975;51.978;8.472;2023-01-28T03:43:57;101542.00;;;-0.22;100.00
4858;BME280;58975;51.978;8.472;2023-01-28T03:49:12;101542.00;;;-0.23;100.00
4858;BME280;58975;51.978;8.472;2023-01-28T03:54:08;101557.13;;;-0.37;100.00
4858;BME280;58975;51.978;8.472;2023-01-28T03:59:06;101552.00;;;-0.43;100.00
4858;BME280;58975;51.978;8.472;2023-01-28T04:04:02;101548.47;;;-0.42;100.00
4858;BME280;58975;51.978;8.472;2023-01-28T04:08:59;101543.34;;;-0.49;100.00
4858;BME280;58975;51.978;8.472;2023-01-28T04:13:55;101559.88;;;-0.45;100.00
4858;BME280;58975;51.978;8.472;2023-01-28T04:18:51;101563.97;;;-0.30;100.00
4858;BME280;58975;51.978;8.472;2023-01-28T04:23:48;101555.38;;;-0.38;100.00
4858;BME280;58975;51.978;8.472;2023-01-28T04:28:44;101566.03;;;-0.47;100.00
4858;BME280;58975;51.978;8.472;2023-01-28T04:33:40;101569.66;;;-0.58;100.00
4858;BME280;58975;51.978;8.472;2023-01-28T04:38:37;101575.94;;;-0.68;100.00
4858;BME280;58975;51.978;8.472;2023-01-28T04:43:34;101582.06;;;-0.69;100.00
4858;BME280;58975;51.978;8.472;2023-01-28T04:48:30;101584.69;;;-0.70;100.00
4858;BME280;58975;51.978;8.472;2023-01-28T04:53:28;101576.81;;;-0.69;100.00
4858;BME280;58975;51.978;8.472;2023-01-28T04:58:25;101582.00;;;-0.66;100.00
4858;BME280;58975;51.978;8.472;2023-01-28T05:03:23;101580.28;;;-0.67;100.00
4858;BME280;58975;51.978;8.472;2023-01-28T05:08:19;101584.56;;;-0.63;100.00
4858;BME280;58975;51.978;8.472;2023-01-28T05:13:16;101577.78;;;-0.74;100.00
4858;BME280;58975;51.978;8.472;2023-01-28T05:18:12;101568.03;;;-0.65;100.00
4858;BME280;58975;51.978;8.472;2023-01-28T05:23:08;101566.09;;;-0.54;100.00
4858;BME280;58975;51.978;8.472;2023-01-28T05:28:05;101569.59;;;-0.52;100.00
4858;BME280;58975;51.978;8.472;2023-01-28T05:33:01;101570.59;;;-0.60;100.00
4858;BME280;58975;51.978;8.472;2023-01-28T05:37:58;101581.06;;;-0.62;100.00
4858;BME280;58975;51.978;8.472;2023-01-28T05:42:54;101586.28;;;-0.60;100.00
4858;BME280;58975;51.978;8.472;2023-01-28T05:47:51;101588.97;;;-0.63;100.00
4858;BME280;58975;51.978;8.472;2023-01-28T05:52:47;101588.91;;;-0.60;100.00
4858;BME280;58975;51.978;8.472;2023-01-28T05:57:44;101588.78;;;-0.53;100.00
4858;BME280;58975;51.978;8.472;2023-01-28T06:02:41;101592.22;;;-0.51;100.00
4858;BME280;58975;51.978;8.472;2023-01-28T06:07:37;101577.50;;;-0.58;100.00
4858;BME280;58975;51.978;8.472;2023-01-28T06:12:34;101585.44;;;-0.62;100.00
4858;BME280;58975;51.978;8.472;2023-01-28T06:17:30;101581.13;;;-0.65;100.00
4858;BME280;58975;51.978;8.472;2023-01-28T06:22:27;101580.31;;;-0.70;100.00
4858;BME280;58975;51.978;8.472;2023-01-28T06:27:23;101593.38;;;-0.68;100.00
4858;BME280;58975;51.978;8.472;2023-01-28T06:32:19;101590.84;;;-0.73;100.00
4858;BME280;58975;51.978;8.472;2023-01-28T06:37:16;101586.47;;;-0.74;100.00
4858;BME280;58975;51.978;8.472;2023-01-28T06:42:13;101597.63;;;-0.63;100.00
4858;BME280;58975;51.978;8.472;2023-01-28T06:47:09;101595.13;;;-0.67;100.00
4858;BME280;58975;51.978;8.472;2023-01-28T06:52:06;101583.84;;;-0.71;100.00
4858;BME280;58975;51.978;8.472;2023-01-28T06:57:02;101589.84;;;-0.64;100.00
4858;BME280;58975;51.978;8.472;2023-01-28T07:01:59;101585.28;;;-0.52;100.00
4858;BME280;58975;51.978;8.472;2023-01-28T07:06:55;101579.31;;;-0.60;100.00
4858;BME280;58975;51.978;8.472;2023-01-28T07:11:51;101599.28;;;-0.56;100.00
4858;BME280;58975;51.978;8.472;2023-01-28T07:16:48;101602.59;;;-0.44;100.00
4858;BME280;58975;51.978;8.472;2023-01-28T07:21:44;101593.81;;;-0.42;100.00
4858;BME280;58975;51.978;8.472;2023-01-28T07:26:41;101593.81;;;-0.40;100.00
4858;BME280;58975;51.978;8.472;2023-01-28T07:31:37;101599.53;;;-0.71;100.00
4858;BME280;58975;51.978;8.472;2023-01-28T07:36:34;101599.69;;;-0.81;100.00
4858;BME280;58975;51.978;8.472;2023-01-28T07:41:30;101598.81;;;-0.82;100.00
4858;BME280;58975;51.978;8.472;2023-01-28T07:46:27;101603.16;;;-0.79;100.00
4858;BME280;58975;51.978;8.472;2023-01-28T07:51:23;101602.25;;;-0.78;100.00
4858;BME280;58975;51.978;8.472;2023-01-28T07:56:19;101608.41;;;-0.81;100.00
4858;BME280;58975;51.978;8.472;2023-01-28T08:01:16;101602.25;;;-0.78;100.00
4858;BME280;58975;51.978;8.472;2023-01-28T08:06:13;101615.31;;;-0.77;100.00
4858;BME280;58975;51.978;8.472;2023-01-28T08:11:10;101632.63;;;-0.70;100.00
4858;BME280;58975;51.978;8.472;2023-01-28T08:16:06;101632.56;;;-0.64;100.00
4858;BME280;58975;51.978;8.472;2023-01-28T08:21:03;101635.81;;;-0.50;100.00
4858;BME280;58975;51.978;8.472;2023-01-28T08:26:00;101641.28;;;-0.63;100.00
4858;BME280;58975;51.978;8.472;2023-01-28T08:30:59;101646.41;;;-0.56;100.00
4858;BME280;58975;51.978;8.472;2023-01-28T08:35:56;101655.13;;;-0.57;100.00
4858;BME280;58975;51.978;8.472;2023-01-28T08:40:55;101655.19;;;-0.63;100.00
4858;BME280;58975;51.978;8.472;2023-01-28T08:45:51;101681.47;;;-0.69;100.00
4858;BME280;58975;51.978;8.472;2023-01-28T08:50:47;101684.13;;;-0.72;100.00
4858;BME280;58975;51.978;8.472;2023-01-28T08:55:46;101695.34;;;-0.65;100.00
4858;BME280;58975;51.978;8.472;2023-01-28T09:00:43;101696.34;;;-0.72;100.00
4858;BME280;58975;51.978;8.472;2023-01-28T09:05:40;101712.78;;;-0.64;100.00
4858;BME280;58975;51.978;8.472;2023-01-28T09:10:37;101718.75;;;-0.55;100.00
4858;BME280;58975;51.978;8.472;2023-01-28T09:15:34;101722.22;;;-0.54;100.00
4858;BME280;58975;51.978;8.472;2023-01-28T09:20:31;101723.78;;;-0.41;100.00
4858;BME280;58975;51.978;8.472;2023-01-28T09:25:28;101733.56;;;-0.54;100.00
4858;BME280;58975;51.978;8.472;2023-01-28T09:30:25;101738.19;;;-0.71;100.00
4858;BME280;58975;51.978;8.472;2023-01-28T09:35:21;101739.88;;;-0.68;100.00
4858;BME280;58975;51.978;8.472;2023-01-28T09:40:20;101744.34;;;-0.76;100.00
4858;BME280;58975;51.978;8.472;2023-01-28T09:45:39;101733.66;;;-0.60;100.00
4858;BME280;58975;51.978;8.472;2023-01-28T09:50:39;101758.47;;;-0.24;100.00
4858;BME280;58975;51.978;8.472;2023-01-28T09:55:44;101763.72;;;-0.27;100.00
4858;BME280;58975;51.978;8.472;2023-01-28T10:00:49;101756.50;;;-0.71;100.00
4858;BME280;58975;51.978;8.472;2023-01-28T10:06:03;101753.78;;;-0.65;100.00
4858;BME280;58975;51.978;8.472;2023-01-28T10:16:28;101727.75;;;-0.14;100.00
4858;BME280;58975;51.978;8.472;2023-01-28T10:21:40;101738.16;;;-0.08;100.00
4858;BME280;58975;51.978;8.472;2023-01-28T10:26:40;101734.91;;;-0.25;100.00
4858;BME280;58975;51.978;8.472;2023-01-28T10:31:43;101728.34;;;0.54;100.00
4858;BME280;58975;51.978;8.472;2023-01-28T10:36:42;101739.84;;;-0.07;100.00
4858;BME280;58975;51.978;8.472;2023-01-28T10:41:39;101738.22;;;-0.14;100.00
4858;BME280;58975;51.978;8.472;2023-01-28T10:46:52;101738.56;;;-0.37;100.00
4858;BME280;58975;51.978;8.472;2023-01-28T10:51:52;101755.72;;;-0.16;100.00
4858;BME280;58975;51.978;8.472;2023-01-28T10:56:52;101767.69;;;-0.63;100.00
4858;BME280;58975;51.978;8.472;2023-01-28T11:01:51;101764.25;;;-0.66;100.00
4858;BME280;58975;51.978;8.472;2023-01-28T11:06:53;101763.69;;;-0.25;100.00
4858;BME280;58975;51.978;8.472;2023-01-28T11:11:49;101764.59;;;-0.26;100.00
4858;BME280;58975;51.978;8.472;2023-01-28T11:16:46;101764.75;;;-0.38;100.00
4858;BME280;58975;51.978;8.472;2023-01-28T11:21:48;101761.47;;;-0.53;100.00
4858;BME280;58975;51.978;8.472;2023-01-28T11:26:49;101752.25;;;-0.18;100.00
4858;BME280;58975;51.978;8.472;2023-01-28T11:31:47;101743.97;;;-0.51;100.00
4858;BME280;58975;51.978;8.472;2023-01-28T11:36:52;101752.75;;;-0.55;100.00
4858;BME280;58975;51.978;8.472;2023-01-28T11:41:49;101734.41;;;0.05;100.00
4858;BME280;58975;51.978;8.472;2023-01-28T11:47:31;101731.59;;;0.19;100.00
4858;BME280;58975;51.978;8.472;2023-01-28T11:52:54;101730.94;;;-0.52;100.00
4858;BME280;58975;51.978;8.472;2023-01-28T11:58:20;101716.94;;;-0.48;100.00
4858;BME280;58975;51.978;8.472;2023-01-28T12:03:22;101713.84;;;-0.19;100.00
4858;BME280;58975;51.978;8.472;2023-01-28T12:08:25;101690.53;;;0.19;100.00
4858;BME280;58975;51.978;8.472;2023-01-28T12:18:40;101685.63;;;0.93;100.00
4858;BME280;58975;51.978;8.472;2023-01-28T12:24:13;101678.81;;;0.83;100.00
4858;BME280;58975;51.978;8.472;2023-01-28T12:39:40;101608.69;;;0.51;100.00
4858;BME280;58975;51.978;8.472;2023-01-28T12:44:57;101593.81;;;0.53;100.00
4858;BME280;58975;51.978;8.472;2023-01-28T12:49:57;101575.66;;;0.85;100.00
4858;BME280;58975;51.978;8.472;2023-01-28T13:00:20;101599.16;;;0.88;100.00
4858;BME280;58975;51.978;8.472;2023-01-28T13:05:26;101601.50;;;0.16;100.00
4858;BME280;58975;51.978;8.472;2023-01-28T13:10:36;101594.19;;;0.33;100.00
4858;BME280;58975;51.978;8.472;2023-01-28T13:15:37;101590.47;;;0.46;100.00
4858;BME280;58975;51.978;8.472;2023-01-28T13:20:46;101620.50;;;0.29;100.00
4858;BME280;58975;51.978;8.472;2023-01-28T13:25:48;101609.94;;;0.33;100.00
4858;BME280;58975;51.978;8.472;2023-01-28T13:30:47;101642.00;;;0.00;100.00
4858;BME280;58975;51.978;8.472;2023-01-28T13:35:52;101635.88;;;-0.01;100.00
4858;BME280;58975;51.978;8.472;2023-01-28T13:41:00;101635.59;;;0.15;100.00
4858;BME280;58975;51.978;8.472;2023-01-28T13:46:09;101656.56;;;0.15;100.00
4858;BME280;58975;51.978;8.472;2023-01-28T13:51:17;101652.22;;;0.12;100.00
4858;BME280;58975;51.978;8.472;2023-01-28T13:56:20;101655.13;;;-0.03;100.00
4858;BME280;58975;51.978;8.472;2023-01-28T14:07:15;101631.41;;;0.06;100.00
4858;BME280;58975;51.978;8.472;2023-01-28T14:17:18;101582.41;;;0.11;100.00
4858;BME280;58975;51.978;8.472;2023-01-28T14:22:20;101576.16;;;0.18;100.00
4858;BME280;58975;51.978;8.472;2023-01-28T14:32:29;101570.28;;;0.50;100.00
4858;BME280;58975;51.978;8.472;2023-01-28T14:37:28;101583.16;;;0.61;100.00
4858;BME280;58975;51.978;8.472;2023-01-28T14:42:30;101586.91;;;0.47;100.00
4858;BME280;58975;51.978;8.472;2023-01-28T14:47:31;101604.41;;;0.01;100.00
4858;BME280;58975;51.978;8.472;2023-01-28T14:57:55;101627.91;;;0.04;100.00
4858;BME280;58975;51.978;8.472;2023-01-28T15:02:53;101635.09;;;-0.07;100.00
4858;BME280;58975;51.978;8.472;2023-01-28T15:07:50;101618.38;;;0.03;100.00
4858;BME280;58975;51.978;8.472;2023-01-28T15:13:08;101618.50;;;-0.06;100.00
4858;BME280;58975;51.978;8.472;2023-01-28T15:18:17;101618.66;;;-0.15;100.00
4858;BME280;58975;51.978;8.472;2023-01-28T15:23:18;101616.16;;;-0.20;100.00
4858;BME280;58975;51.978;8.472;2023-01-28T15:28:42;101619.84;;;-0.33;100.00
4858;BME280;58975;51.978;8.472;2023-01-28T15:33:39;101641.00;;;-0.47;100.00
4858;BME280;58975;51.978;8.472;2023-01-28T15:38:35;101642.84;;;-0.52;100.00
4858;BME280;58975;51.978;8.472;2023-01-28T15:43:35;101652.50;;;-0.57;100.00
4858;BME280;58975;51.978;8.472;2023-01-28T15:48:33;101641.28;;;-0.65;100.00
4858;BME280;58975;51.978;8.472;2023-01-28T15:53:34;101638.78;;;-0.72;100.00
4858;BME280;58975;51.978;8.472;2023-01-28T15:58:31;101651.97;;;-0.80;100.00
4858;BME280;58975;51.978;8.472;2023-01-28T16:03:32;101657.28;;;-0.86;100.00
4858;BME280;58975;51.978;8.472;2023-01-28T16:08:36;101674.91;;;-1.00;100.00
4858;BME280;58975;51.978;8.472;2023-01-28T16:13:40;101661.00;;;-1.02;100.00
4858;BME280;58975;51.978;8.472;2023-01-28T16:18:52;101671.63;;;-1.17;100.00
4858;BME280;58975;51.978;8.472;2023-01-28T16:23:52;101685.66;;;-1.24;100.00
4858;BME280;58975;51.978;8.472;2023-01-28T16:28:53;101697.91;;;-1.28;100.00
4858;BME280;58975;51.978;8.472;2023-01-28T16:33:50;101692.69;;;-1.26;100.00
4858;BME280;58975;51.978;8.472;2023-01-28T16:38:46;101674.25;;;-1.16;100.00
4858;BME280;58975;51.978;8.472;2023-01-28T16:43:43;101660.97;;;-0.99;100.00
4858;BME280;58975;51.978;8.472;2023-01-28T16:48:39;101638.09;;;-0.85;100.00
4858;BME280;58975;51.978;8.472;2023-01-28T16:53:35;101640.88;;;-0.97;100.00
4858;BME280;58975;51.978;8.472;2023-01-28T16:58:32;101640.16;;;-1.10;100.00
4858;BME280;58975;51.978;8.472;2023-01-28T17:03:28;101651.78;;;-1.32;100.00
4858;BME280;58975;51.978;8.472;2023-01-28T17:08:25;101641.44;;;-1.41;100.00
4858;BME280;58975;51.978;8.472;2023-01-28T17:13:21;101659.03;;;-1.54;100.00
4858;BME280;58975;51.978;8.472;2023-01-28T17:18:18;101659.19;;;-1.70;100.00
4858;BME280;58975;51.978;8.472;2023-01-28T17:23:15;101656.94;;;-2.07;100.00
4858;BME280;58975;51.978;8.472;2023-01-28T17:28:11;101693.56;;;-2.19;100.00
4858;BME280;58975;51.978;8.472;2023-01-28T17:33:08;101699.63;;;-2.15;100.00
4858;BME280;58975;51.978;8.472;2023-01-28T17:38:05;101680.56;;;-2.22;100.00
4858;BME280;58975;51.978;8.472;2023-01-28T17:43:02;101685.75;;;-2.22;100.00
4858;BME280;58975;51.978;8.472;2023-01-28T17:47:58;101671.06;;;-2.32;100.00
4858;BME280;58975;51.978;8.472;2023-01-28T17:52:56;101666.81;;;-2.45;100.00
4858;BME280;58975;51.978;8.472;2023-01-28T17:57:52;101676.47;;;-2.58;100.00
4858;BME280;58975;51.978;8.472;2023-01-28T18:02:49;101694.72;;;-2.58;100.00
4858;BME280;58975;51.978;8.472;2023-01-28T18:07:46;101699.09;;;-2.66;100.00
4858;BME280;58975;51.978;8.472;2023-01-28T18:12:44;101707.81;;;-2.70;100.00
4858;BME280;58975;51.978;8.472;2023-01-28T18:17:40;101709.59;;;-2.78;100.00
4858;BME280;58975;51.978;8.472;2023-01-28T18:22:37;101709.72;;;-2.95;100.00
4858;BME280;58975;51.978;8.472;2023-01-28T18:27:33;101700.97;;;-2.89;100.00
4858;BME280;58975;51.978;8.472;2023-01-28T18:32:30;101724.44;;;-2.94;100.00
4858;BME280;58975;51.978;8.472;2023-01-28T18:37:27;101720.09;;;-2.90;100.00
4858;BME280;58975;51.978;8.472;2023-01-28T18:42:23;101737.50;;;-3.01;100.00
4858;BME280;58975;51.978;8.472;2023-01-28T18:47:20;101742.78;;;-3.10;100.00
4858;BME280;58975;51.978;8.472;2023-01-28T18:52:17;101738.44;;;-3.13;100.00
4858;BME280;58975;51.978;8.472;2023-01-28T18:57:13;101730.59;;;-3.05;100.00
4858;BME280;58975;51.978;8.472;2023-01-28T19:02:12;101727.09;;;-3.04;100.00
4858;BME280;58975;51.978;8.472;2023-01-28T19:07:08;101734.94;;;-3.09;100.00
4858;BME280;58975;51.978;8.472;2023-01-28T19:12:07;101747.94;;;-3.01;100.00
4858;BME280;58975;51.978;8.472;2023-01-28T19:17:03;101748.88;;;-3.10;100.00
4858;BME280;58975;51.978;8.472;2023-01-28T19:22:00;101754.09;;;-3.25;100.00
4858;BME280;58975;51.978;8.472;2023-01-28T19:26:56;101760.19;;;-3.37;100.00
4858;BME280;58975;51.978;8.472;2023-01-28T19:31:54;101764.53;;;-3.23;100.00
4858;BME280;58975;51.978;8.472;2023-01-28T19:36:50;101764.53;;;-3.23;100.00
4858;BME280;58975;51.978;8.472;2023-01-28T19:41:47;101763.63;;;-3.19;100.00
4858;BME280;58975;51.978;8.472;2023-01-28T19:46:43;101754.13;;;-3.36;100.00
4858;BME280;58975;51.978;8.472;2023-01-28T19:51:39;101749.78;;;-3.26;100.00
4858;BME280;58975;51.978;8.472;2023-01-28T19:56:36;101748.94;;;-3.34;100.00
4858;BME280;58975;51.978;8.472;2023-01-28T20:01:34;101748.09;;;-3.45;100.00
4858;BME280;58975;51.978;8.472;2023-01-28T20:06:34;101737.69;;;-3.50;100.00
4858;BME280;58975;51.978;8.472;2023-01-28T20:11:30;101737.69;;;-3.71;100.00
4858;BME280;58975;51.978;8.472;2023-01-28T20:16:29;101740.28;;;-3.63;100.00
4858;BME280;58975;51.978;8.472;2023-01-28T20:21:27;101726.41;;;-3.61;100.00
4858;BME280;58975;51.978;8.472;2023-01-28T20:26:27;101724.66;;;-3.68;100.00
4858;BME280;58975;51.978;8.472;2023-01-28T20:31:26;101723.81;;;-3.76;100.00
4858;BME280;58975;51.978;8.472;2023-01-28T20:36:23;101722.09;;;-3.83;100.00
4858;BME280;58975;51.978;8.472;2023-01-28T20:41:22;101712.56;;;-3.93;100.00
4858;BME280;58975;51.978;8.472;2023-01-28T20:46:25;101709.09;;;-3.98;100.00
4858;BME280;58975;51.978;8.472;2023-01-28T20:51:27;101695.22;;;-3.97;100.00
4858;BME280;58975;51.978;8.472;2023-01-28T20:56:25;101708.25;;;-4.00;100.00
4858;BME280;58975;51.978;8.472;2023-01-28T21:01:25;101703.88;;;-4.15;100.00
4858;BME280;58975;51.978;8.472;2023-01-28T21:06:23;101706.50;;;-4.16;100.00
4858;BME280;58975;51.978;8.472;2023-01-28T21:11:21;101708.22;;;-4.09;100.00
4858;BME280;58975;51.978;8.472;2023-01-28T21:16:18;101704.78;;;-4.08;100.00
4858;BME280;58975;51.978;8.472;2023-01-28T21:21:21;101711.69;;;-4.16;100.00
4858;BME280;58975;51.978;8.472;2023-01-28T21:26:17;101709.09;;;-4.12;100.00
4858;BME280;58975;51.978;8.472;2023-01-28T21:31:17;101713.44;;;-4.09;100.00
4858;BME280;58975;51.978;8.472;2023-01-28T21:36:14;101712.56;;;-4.01;100.00
4858;BME280;58975;51.978;8.472;2023-01-28T21:41:11;101716.03;;;-3.97;100.00
4858;BME280;58975;51.978;8.472;2023-01-28T21:46:07;101721.25;;;-3.88;100.00
4858;BME280;58975;51.978;8.472;2023-01-28T21:51:07;101712.53;;;-3.79;100.00
4858;BME280;58975;51.978;8.472;2023-01-28T21:56:22;101715.16;;;-3.73;100.00
4858;BME280;58975;51.978;8.472;2023-01-28T22:01:18;101711.66;;;-3.62;100.00
4858;BME280;58975;51.978;8.472;2023-01-28T22:06:15;101713.38;;;-3.64;100.00
4858;BME280;58975;51.978;8.472;2023-01-28T22:11:12;101713.38;;;-3.53;100.00
4858;BME280;58975;51.978;8.472;2023-01-28T22:16:08;101707.31;;;-3.64;100.00
4858;BME280;58975;51.978;8.472;2023-01-28T22:21:06;101702.97;;;-3.55;100.00
4858;BME280;58975;51.978;8.472;2023-01-28T22:26:03;101709.03;;;-3.50;100.00
4858;BME280;58975;51.978;8.472;2023-01-28T22:31:05;101698.53;;;-3.22;100.00
4858;BME280;58975;51.978;8.472;2023-01-28T22:36:11;101694.19;;;-3.25;100.00
4858;BME280;58975;51.978;8.472;2023-01-28T22:41:11;101690.78;;;-3.38;100.00
4858;BME280;58975;51.978;8.472;2023-01-28T22:46:09;101700.31;;;-3.44;100.00
4858;BME280;58975;51.978;8.472;2023-01-28T22:51:09;101696.00;;;-3.47;100.00
4858;BME280;58975;51.978;8.472;2023-01-28T22:56:06;101691.66;;;-3.43;100.00
4858;BME280;58975;51.978;8.472;2023-01-28T23:01:02;101692.50;;;-3.49;100.00
4858;BME280;58975;51.978;8.472;2023-01-28T23:06:01;101686.44;;;-3.48;100.00
4858;BME280;58975;51.978;8.472;2023-01-28T23:11:00;101695.09;;;-3.33;100.00
4858;BME280;58975;51.978;8.472;2023-01-28T23:15:56;101694.19;;;-3.28;100.00
4858;BME280;58975;51.978;8.472;2023-01-28T23:21:15;101689.81;;;-3.20;100.00
4858;BME280;58975;51.978;8.472;2023-01-28T23:26:30;101698.47;;;-3.10;100.00
4858;BME280;58975;51.978;8.472;2023-01-28T23:31:27;101690.59;;;-2.95;100.00
4858;BME280;58975;51.978;8.472;2023-01-28T23:36:24;101688.84;;;-2.96;100.00
4858;BME280;58975;51.978;8.472;2023-01-28T23:41:20;101685.34;;;-2.92;100.00
4858;BME280;58975;51.978;8.472;2023-01-28T23:46:16;101679.25;;;-2.88;100.00
4858;BME280;58975;51.978;8.472;2023-01-28T23:51:20;101687.09;;;-2.91;100.00
4858;BME280;58975;51.978;8.472;2023-01-28T23:56:16;101684.47;;;-2.88;100.00
